Terminal Aerodrome Forecast
Issued by NWS

Current Version | Previous Version | Text Only | Print | Product List | Glossary Off
Versions: 1 2 3 4 5 6 7 8 9 10 11 12 13 14 15 16 17 18 19 20 21 22 23

921
FTUS41 KRLX 171720
TAFCKB
TAF
KCKB 171720Z 1718/1818 10003KT P6SM SCT250
     FM172100 13003KT P6SM SCT250
     FM180700 17003KT P6SM BKN200
     FM181100 19005KT P6SM OVC060
     FM181400 21009G16KT P6SM SHRA OVC050
     FM181700 21010G20KT P6SM SHRA OVC050=

USA.gov is the U.S. government's official web portal to all federal, state and local government web resources and services.